sensor_id;sensor_type;location;lat;lon;timestamp;P1;durP1;ratioP1;P2;durP2;ratioP2
46407;SDS011;32110;45.724;21.276;2023-10-08T00:00:51;28.20;;;11.20;;
46407;SDS011;32110;45.724;21.276;2023-10-08T00:03:22;21.63;;;11.95;;
46407;SDS011;32110;45.724;21.276;2023-10-08T00:05:48;27.80;;;11.93;;
46407;SDS011;32110;45.724;21.276;2023-10-08T00:08:16;27.95;;;12.07;;
46407;SDS011;32110;45.724;21.276;2023-10-08T00:10:43;24.70;;;11.32;;
46407;SDS011;32110;45.724;21.276;2023-10-08T00:13:09;25.60;;;11.68;;
46407;SDS011;32110;45.724;21.276;2023-10-08T00:15:36;29.90;;;13.15;;
46407;SDS011;32110;45.724;21.276;2023-10-08T00:18:03;25.10;;;12.38;;
46407;SDS011;32110;45.724;21.276;2023-10-08T00:20:30;25.10;;;11.63;;
46407;SDS011;32110;45.724;21.276;2023-10-08T00:23:29;21.35;;;11.10;;
46407;SDS011;32110;45.724;21.276;2023-10-08T00:25:55;21.92;;;11.57;;
46407;SDS011;32110;45.724;21.276;2023-10-08T00:28:22;23.23;;;11.20;;
46407;SDS011;32110;45.724;21.276;2023-10-08T00:30:49;28.40;;;11.35;;
46407;SDS011;32110;45.724;21.276;2023-10-08T00:33:15;25.80;;;11.55;;
46407;SDS011;32110;45.724;21.276;2023-10-08T00:35:40;20.85;;;11.18;;
46407;SDS011;32110;45.724;21.276;2023-10-08T00:38:10;21.92;;;11.43;;
46407;SDS011;32110;45.724;21.276;2023-10-08T00:40:48;23.10;;;12.27;;
46407;SDS011;32110;45.724;21.276;2023-10-08T00:43:30;24.30;;;10.77;;
46407;SDS011;32110;45.724;21.276;2023-10-08T00:46:00;21.23;;;11.32;;
46407;SDS011;32110;45.724;21.276;2023-10-08T00:48:26;25.23;;;11.25;;
46407;SDS011;32110;45.724;21.276;2023-10-08T00:50:59;25.77;;;11.73;;
46407;SDS011;32110;45.724;21.276;2023-10-08T00:53:40;31.38;;;12.15;;
46407;SDS011;32110;45.724;21.276;2023-10-08T00:56:06;25.77;;;11.10;;
46407;SDS011;32110;45.724;21.276;2023-10-08T00:58:39;39.90;;;11.95;;
46407;SDS011;32110;45.724;21.276;2023-10-08T01:01:06;24.40;;;10.52;;
46407;SDS011;32110;45.724;21.276;2023-10-08T01:03:35;25.05;;;14.82;;
46407;SDS011;32110;45.724;21.276;2023-10-08T01:06:01;31.92;;;15.77;;
46407;SDS011;32110;45.724;21.276;2023-10-08T01:08:28;25.83;;;10.93;;
46407;SDS011;32110;45.724;21.276;2023-10-08T01:11:16;18.88;;;10.98;;
46407;SDS011;32110;45.724;21.276;2023-10-08T01:13:43;24.27;;;11.02;;
46407;SDS011;32110;45.724;21.276;2023-10-08T01:16:11;24.75;;;10.35;;
46407;SDS011;32110;45.724;21.276;2023-10-08T01:18:36;25.85;;;11.02;;
46407;SDS011;32110;45.724;21.276;2023-10-08T01:21:07;28.15;;;11.38;;
46407;SDS011;32110;45.724;21.276;2023-10-08T01:23:36;23.52;;;11.18;;
46407;SDS011;32110;45.724;21.276;2023-10-08T01:26:03;23.98;;;10.43;;
46407;SDS011;32110;45.724;21.276;2023-10-08T01:28:37;20.95;;;11.40;;
46407;SDS011;32110;45.724;21.276;2023-10-08T01:31:03;23.08;;;10.93;;
46407;SDS011;32110;45.724;21.276;2023-10-08T01:33:29;21.17;;;10.95;;
46407;SDS011;32110;45.724;21.276;2023-10-08T01:36:04;24.80;;;10.68;;
46407;SDS011;32110;45.724;21.276;2023-10-08T01:38:30;22.67;;;10.77;;
46407;SDS011;32110;45.724;21.276;2023-10-08T01:40:57;29.08;;;11.32;;
46407;SDS011;32110;45.724;21.276;2023-10-08T01:43:28;22.58;;;10.82;;
46407;SDS011;32110;45.724;21.276;2023-10-08T01:45:53;23.42;;;10.95;;
46407;SDS011;32110;45.724;21.276;2023-10-08T01:48:19;23.10;;;12.48;;
46407;SDS011;32110;45.724;21.276;2023-10-08T01:50:46;25.45;;;11.77;;
46407;SDS011;32110;45.724;21.276;2023-10-08T01:53:13;27.23;;;12.13;;
46407;SDS011;32110;45.724;21.276;2023-10-08T01:55:41;20.67;;;11.73;;
46407;SDS011;32110;45.724;21.276;2023-10-08T01:58:17;23.05;;;10.93;;
46407;SDS011;32110;45.724;21.276;2023-10-08T02:00:44;21.70;;;10.85;;
46407;SDS011;32110;45.724;21.276;2023-10-08T02:03:16;25.98;;;11.75;;
46407;SDS011;32110;45.724;21.276;2023-10-08T02:05:43;25.92;;;12.70;;
46407;SDS011;32110;45.724;21.276;2023-10-08T02:08:13;25.00;;;11.63;;
46407;SDS011;32110;45.724;21.276;2023-10-08T02:10:40;21.70;;;11.65;;
46407;SDS011;32110;45.724;21.276;2023-10-08T02:13:08;22.88;;;11.65;;
46407;SDS011;32110;45.724;21.276;2023-10-08T02:15:40;27.02;;;12.15;;
46407;SDS011;32110;45.724;21.276;2023-10-08T02:18:08;20.77;;;11.68;;
46407;SDS011;32110;45.724;21.276;2023-10-08T02:20:34;25.88;;;12.70;;
46407;SDS011;32110;45.724;21.276;2023-10-08T02:22:59;23.17;;;12.80;;
46407;SDS011;32110;45.724;21.276;2023-10-08T02:25:25;26.45;;;13.88;;
46407;SDS011;32110;45.724;21.276;2023-10-08T02:27:51;23.52;;;13.00;;
46407;SDS011;32110;45.724;21.276;2023-10-08T02:30:16;26.20;;;13.63;;
46407;SDS011;32110;45.724;21.276;2023-10-08T02:32:43;25.00;;;13.55;;
46407;SDS011;32110;45.724;21.276;2023-10-08T02:35:09;25.58;;;13.75;;
46407;SDS011;32110;45.724;21.276;2023-10-08T02:37:39;23.90;;;13.68;;
46407;SDS011;32110;45.724;21.276;2023-10-08T02:40:06;25.95;;;14.18;;
46407;SDS011;32110;45.724;21.276;2023-10-08T02:42:44;28.80;;;14.88;;
46407;SDS011;32110;45.724;21.276;2023-10-08T02:45:11;35.03;;;16.05;;
46407;SDS011;32110;45.724;21.276;2023-10-08T02:47:39;27.45;;;15.93;;
46407;SDS011;32110;45.724;21.276;2023-10-08T02:50:07;27.85;;;16.40;;
46407;SDS011;32110;45.724;21.276;2023-10-08T02:52:33;32.78;;;17.67;;
46407;SDS011;32110;45.724;21.276;2023-10-08T02:54:59;28.17;;;17.63;;
46407;SDS011;32110;45.724;21.276;2023-10-08T02:57:25;30.40;;;17.92;;
46407;SDS011;32110;45.724;21.276;2023-10-08T02:59:54;33.97;;;18.38;;
46407;SDS011;32110;45.724;21.276;2023-10-08T03:02:20;36.00;;;19.33;;
46407;SDS011;32110;45.724;21.276;2023-10-08T03:04:47;34.47;;;20.27;;
46407;SDS011;32110;45.724;21.276;2023-10-08T03:07:13;39.03;;;21.05;;
46407;SDS011;32110;45.724;21.276;2023-10-08T03:09:57;35.60;;;21.08;;
46407;SDS011;32110;45.724;21.276;2023-10-08T03:12:34;35.50;;;21.52;;
46407;SDS011;32110;45.724;21.276;2023-10-08T03:14:59;38.47;;;21.23;;
46407;SDS011;32110;45.724;21.276;2023-10-08T03:17:44;39.22;;;22.13;;
46407;SDS011;32110;45.724;21.276;2023-10-08T03:20:19;41.25;;;23.13;;
46407;SDS011;32110;45.724;21.276;2023-10-08T03:23:06;40.30;;;23.85;;
46407;SDS011;32110;45.724;21.276;2023-10-08T03:25:52;35.78;;;23.30;;
46407;SDS011;32110;45.724;21.276;2023-10-08T03:28:43;40.38;;;24.63;;
46407;SDS011;32110;45.724;21.276;2023-10-08T03:31:09;42.78;;;25.23;;
46407;SDS011;32110;45.724;21.276;2023-10-08T03:33:42;42.55;;;24.25;;
46407;SDS011;32110;45.724;21.276;2023-10-08T03:36:14;39.42;;;24.60;;
46407;SDS011;32110;45.724;21.276;2023-10-08T03:38:46;42.08;;;24.58;;
46407;SDS011;32110;45.724;21.276;2023-10-08T03:41:26;39.05;;;23.85;;
46407;SDS011;32110;45.724;21.276;2023-10-08T03:43:55;43.90;;;24.60;;
46407;SDS011;32110;45.724;21.276;2023-10-08T03:46:29;44.95;;;23.75;;
46407;SDS011;32110;45.724;21.276;2023-10-08T03:48:56;41.15;;;23.88;;
46407;SDS011;32110;45.724;21.276;2023-10-08T03:51:29;37.42;;;23.25;;
46407;SDS011;32110;45.724;21.276;2023-10-08T03:53:54;39.70;;;23.30;;
46407;SDS011;32110;45.724;21.276;2023-10-08T03:56:41;44.50;;;23.23;;
46407;SDS011;32110;45.724;21.276;2023-10-08T03:59:19;37.25;;;23.10;;
46407;SDS011;32110;45.724;21.276;2023-10-08T04:01:59;32.65;;;21.08;;
46407;SDS011;32110;45.724;21.276;2023-10-08T04:04:35;32.13;;;20.60;;
46407;SDS011;32110;45.724;21.276;2023-10-08T04:07:20;37.22;;;19.55;;
46407;SDS011;32110;45.724;21.276;2023-10-08T04:09:51;35.17;;;19.77;;
46407;SDS011;32110;45.724;21.276;2023-10-08T04:12:40;29.27;;;18.73;;
46407;SDS011;32110;45.724;21.276;2023-10-08T04:15:09;35.30;;;19.33;;
46407;SDS011;32110;45.724;21.276;2023-10-08T04:17:37;34.97;;;18.65;;
46407;SDS011;32110;45.724;21.276;2023-10-08T04:20:09;26.80;;;17.30;;
46407;SDS011;32110;45.724;21.276;2023-10-08T04:22:55;29.23;;;16.77;;
46407;SDS011;32110;45.724;21.276;2023-10-08T04:25:20;35.17;;;16.95;;
46407;SDS011;32110;45.724;21.276;2023-10-08T04:27:46;29.65;;;15.57;;
46407;SDS011;32110;45.724;21.276;2023-10-08T04:30:15;28.27;;;16.90;;
46407;SDS011;32110;45.724;21.276;2023-10-08T04:32:40;29.77;;;15.95;;
46407;SDS011;32110;45.724;21.276;2023-10-08T04:35:06;28.17;;;15.10;;
46407;SDS011;32110;45.724;21.276;2023-10-08T04:37:34;28.30;;;15.25;;
46407;SDS011;32110;45.724;21.276;2023-10-08T04:40:00;27.08;;;15.38;;
46407;SDS011;32110;45.724;21.276;2023-10-08T04:42:25;26.92;;;14.23;;
46407;SDS011;32110;45.724;21.276;2023-10-08T04:44:51;26.63;;;13.85;;
46407;SDS011;32110;45.724;21.276;2023-10-08T04:47:17;25.17;;;14.25;;
46407;SDS011;32110;45.724;21.276;2023-10-08T04:49:59;26.60;;;14.27;;
46407;SDS011;32110;45.724;21.276;2023-10-08T04:52:24;23.13;;;13.80;;
46407;SDS011;32110;45.724;21.276;2023-10-08T04:54:52;27.02;;;14.35;;
46407;SDS011;32110;45.724;21.276;2023-10-08T04:57:19;24.42;;;13.38;;
46407;SDS011;32110;45.724;21.276;2023-10-08T04:59:48;25.33;;;14.07;;
46407;SDS011;32110;45.724;21.276;2023-10-08T05:02:15;25.35;;;13.73;;
46407;SDS011;32110;45.724;21.276;2023-10-08T05:05:05;28.23;;;13.57;;
46407;SDS011;32110;45.724;21.276;2023-10-08T05:07:34;22.98;;;13.13;;
46407;SDS011;32110;45.724;21.276;2023-10-08T05:10:23;25.38;;;13.73;;
46407;SDS011;32110;45.724;21.276;2023-10-08T05:12:48;21.60;;;12.93;;
46407;SDS011;32110;45.724;21.276;2023-10-08T05:15:37;22.03;;;13.03;;
46407;SDS011;32110;45.724;21.276;2023-10-08T05:18:27;27.60;;;13.23;;
46407;SDS011;32110;45.724;21.276;2023-10-08T05:21:13;22.23;;;13.23;;
46407;SDS011;32110;45.724;21.276;2023-10-08T05:23:51;22.92;;;13.02;;
46407;SDS011;32110;45.724;21.276;2023-10-08T05:26:34;25.30;;;13.45;;
46407;SDS011;32110;45.724;21.276;2023-10-08T05:29:14;25.05;;;13.02;;
46407;SDS011;32110;45.724;21.276;2023-10-08T05:32:14;24.67;;;13.48;;
46407;SDS011;32110;45.724;21.276;2023-10-08T05:35:03;28.55;;;13.52;;
46407;SDS011;32110;45.724;21.276;2023-10-08T05:37:47;26.25;;;13.98;;
46407;SDS011;32110;45.724;21.276;2023-10-08T05:40:17;22.92;;;12.65;;
46407;SDS011;32110;45.724;21.276;2023-10-08T05:43:08;23.40;;;12.75;;
46407;SDS011;32110;45.724;21.276;2023-10-08T05:45:53;23.23;;;13.13;;
46407;SDS011;32110;45.724;21.276;2023-10-08T05:48:39;25.58;;;12.55;;
46407;SDS011;32110;45.724;21.276;2023-10-08T05:51:11;23.98;;;12.48;;
46407;SDS011;32110;45.724;21.276;2023-10-08T05:53:58;22.35;;;11.98;;
46407;SDS011;32110;45.724;21.276;2023-10-08T05:56:24;29.90;;;12.15;;
46407;SDS011;32110;45.724;21.276;2023-10-08T05:59:09;24.08;;;12.27;;
46407;SDS011;32110;45.724;21.276;2023-10-08T06:01:52;21.27;;;11.75;;
46407;SDS011;32110;45.724;21.276;2023-10-08T06:04:30;20.80;;;10.88;;
46407;SDS011;32110;45.724;21.276;2023-10-08T06:07:10;22.00;;;11.15;;
46407;SDS011;32110;45.724;21.276;2023-10-08T06:09:48;25.65;;;11.93;;
46407;SDS011;32110;45.724;21.276;2023-10-08T06:12:27;22.02;;;11.25;;
46407;SDS011;32110;45.724;21.276;2023-10-08T06:15:04;16.88;;;11.02;;
46407;SDS011;32110;45.724;21.276;2023-10-08T06:17:34;18.40;;;10.95;;
46407;SDS011;32110;45.724;21.276;2023-10-08T06:20:19;20.70;;;11.07;;
46407;SDS011;32110;45.724;21.276;2023-10-08T06:22:50;21.08;;;10.68;;
46407;SDS011;32110;45.724;21.276;2023-10-08T06:25:18;22.70;;;11.00;;
46407;SDS011;32110;45.724;21.276;2023-10-08T06:27:48;24.27;;;10.63;;
46407;SDS011;32110;45.724;21.276;2023-10-08T06:30:20;19.60;;;11.00;;
46407;SDS011;32110;45.724;21.276;2023-10-08T06:32:46;22.75;;;10.95;;
46407;SDS011;32110;45.724;21.276;2023-10-08T06:35:13;24.08;;;11.45;;
46407;SDS011;32110;45.724;21.276;2023-10-08T06:40:11;21.77;;;10.85;;
46407;SDS011;32110;45.724;21.276;2023-10-08T06:42:55;24.15;;;11.30;;
46407;SDS011;32110;45.724;21.276;2023-10-08T06:45:22;17.67;;;10.13;;
46407;SDS011;32110;45.724;21.276;2023-10-08T06:48:06;21.65;;;11.05;;
46407;SDS011;32110;45.724;21.276;2023-10-08T06:50:32;21.20;;;10.90;;
46407;SDS011;32110;45.724;21.276;2023-10-08T06:53:03;22.77;;;9.55;;
46407;SDS011;32110;45.724;21.276;2023-10-08T06:55:32;27.40;;;10.38;;
46407;SDS011;32110;45.724;21.276;2023-10-08T06:58:00;22.40;;;10.77;;
46407;SDS011;32110;45.724;21.276;2023-10-08T07:00:30;22.10;;;10.57;;
46407;SDS011;32110;45.724;21.276;2023-10-08T07:03:23;20.92;;;10.55;;
46407;SDS011;32110;45.724;21.276;2023-10-08T07:05:49;22.77;;;10.35;;
46407;SDS011;32110;45.724;21.276;2023-10-08T07:08:31;18.60;;;10.00;;
46407;SDS011;32110;45.724;21.276;2023-10-08T07:10:57;21.67;;;10.25;;
46407;SDS011;32110;45.724;21.276;2023-10-08T07:13:26;20.42;;;9.70;;
46407;SDS011;32110;45.724;21.276;2023-10-08T07:15:54;18.90;;;9.48;;
46407;SDS011;32110;45.724;21.276;2023-10-08T07:18:21;22.42;;;9.55;;
46407;SDS011;32110;45.724;21.276;2023-10-08T07:20:50;19.58;;;9.40;;
46407;SDS011;32110;45.724;21.276;2023-10-08T07:23:24;20.88;;;10.10;;
46407;SDS011;32110;45.724;21.276;2023-10-08T07:25:56;22.02;;;9.88;;
46407;SDS011;32110;45.724;21.276;2023-10-08T07:28:38;16.90;;;8.90;;
46407;SDS011;32110;45.724;21.276;2023-10-08T07:31:13;20.70;;;9.85;;
46407;SDS011;32110;45.724;21.276;2023-10-08T07:33:42;17.67;;;9.73;;
46407;SDS011;32110;45.724;21.276;2023-10-08T07:36:09;20.10;;;9.35;;
46407;SDS011;32110;45.724;21.276;2023-10-08T07:38:39;16.38;;;8.70;;
46407;SDS011;32110;45.724;21.276;2023-10-08T07:41:11;19.60;;;9.45;;
46407;SDS011;32110;45.724;21.276;2023-10-08T07:43:40;18.50;;;9.00;;
46407;SDS011;32110;45.724;21.276;2023-10-08T07:46:09;18.00;;;9.13;;
46407;SDS011;32110;45.724;21.276;2023-10-08T07:48:35;22.40;;;9.15;;
46407;SDS011;32110;45.724;21.276;2023-10-08T07:51:09;20.90;;;9.25;;
46407;SDS011;32110;45.724;21.276;2023-10-08T07:53:35;18.40;;;9.30;;
46407;SDS011;32110;45.724;21.276;2023-10-08T07:56:06;20.98;;;9.73;;
46407;SDS011;32110;45.724;21.276;2023-10-08T07:58:32;18.80;;;9.15;;
46407;SDS011;32110;45.724;21.276;2023-10-08T08:01:05;17.90;;;9.80;;
46407;SDS011;32110;45.724;21.276;2023-10-08T08:03:32;20.38;;;9.27;;
46407;SDS011;32110;45.724;21.276;2023-10-08T08:06:05;16.15;;;8.45;;
46407;SDS011;32110;45.724;21.276;2023-10-08T08:08:38;21.60;;;9.68;;
46407;SDS011;32110;45.724;21.276;2023-10-08T08:11:07;19.58;;;9.60;;
46407;SDS011;32110;45.724;21.276;2023-10-08T08:13:39;17.67;;;8.55;;
46407;SDS011;32110;45.724;21.276;2023-10-08T08:16:10;19.35;;;9.10;;
46407;SDS011;32110;45.724;21.276;2023-10-08T08:18:45;17.23;;;8.50;;
46407;SDS011;32110;45.724;21.276;2023-10-08T08:21:15;16.55;;;8.50;;
46407;SDS011;32110;45.724;21.276;2023-10-08T08:23:44;14.18;;;8.00;;
46407;SDS011;32110;45.724;21.276;2023-10-08T08:26:17;19.13;;;8.55;;
46407;SDS011;32110;45.724;21.276;2023-10-08T08:28:57;18.55;;;8.38;;
46407;SDS011;32110;45.724;21.276;2023-10-08T08:31:25;21.75;;;9.55;;
46407;SDS011;32110;45.724;21.276;2023-10-08T08:33:51;20.92;;;8.93;;
46407;SDS011;32110;45.724;21.276;2023-10-08T08:36:18;18.73;;;8.25;;
46407;SDS011;32110;45.724;21.276;2023-10-08T08:38:47;15.50;;;8.05;;
46407;SDS011;32110;45.724;21.276;2023-10-08T08:41:13;20.30;;;8.75;;
46407;SDS011;32110;45.724;21.276;2023-10-08T08:43:43;18.10;;;9.00;;
46407;SDS011;32110;45.724;21.276;2023-10-08T08:46:09;14.73;;;8.15;;
46407;SDS011;32110;45.724;21.276;2023-10-08T08:48:39;19.63;;;8.77;;
46407;SDS011;32110;45.724;21.276;2023-10-08T08:51:06;14.90;;;8.88;;
46407;SDS011;32110;45.724;21.276;2023-10-08T08:53:32;13.75;;;7.78;;
46407;SDS011;32110;45.724;21.276;2023-10-08T08:55:59;13.55;;;7.60;;
46407;SDS011;32110;45.724;21.276;2023-10-08T08:58:29;19.13;;;8.50;;
46407;SDS011;32110;45.724;21.276;2023-10-08T09:00:57;17.85;;;8.82;;
46407;SDS011;32110;45.724;21.276;2023-10-08T09:03:24;15.45;;;7.10;;
46407;SDS011;32110;45.724;21.276;2023-10-08T09:05:55;14.43;;;7.80;;
46407;SDS011;32110;45.724;21.276;2023-10-08T09:08:27;11.85;;;6.80;;
46407;SDS011;32110;45.724;21.276;2023-10-08T09:13:25;14.77;;;6.75;;
46407;SDS011;32110;45.724;21.276;2023-10-08T09:15:51;13.63;;;6.50;;
46407;SDS011;32110;45.724;21.276;2023-10-08T09:18:17;14.02;;;7.20;;
46407;SDS011;32110;45.724;21.276;2023-10-08T09:20:46;13.30;;;6.43;;
46407;SDS011;32110;45.724;21.276;2023-10-08T09:26:08;15.02;;;6.97;;
46407;SDS011;32110;45.724;21.276;2023-10-08T09:28:40;12.63;;;6.30;;
46407;SDS011;32110;45.724;21.276;2023-10-08T09:31:11;11.77;;;6.43;;
46407;SDS011;32110;45.724;21.276;2023-10-08T09:33:37;12.75;;;6.85;;
46407;SDS011;32110;45.724;21.276;2023-10-08T09:36:04;13.40;;;6.35;;
46407;SDS011;32110;45.724;21.276;2023-10-08T09:38:32;19.38;;;6.32;;
46407;SDS011;32110;45.724;21.276;2023-10-08T09:40:59;15.88;;;6.45;;
46407;SDS011;32110;45.724;21.276;2023-10-08T09:43:27;18.33;;;6.57;;
46407;SDS011;32110;45.724;21.276;2023-10-08T09:46:02;14.75;;;6.05;;
46407;SDS011;32110;45.724;21.276;2023-10-08T09:48:35;14.80;;;5.95;;
46407;SDS011;32110;45.724;21.276;2023-10-08T09:51:02;21.35;;;5.03;;
46407;SDS011;32110;45.724;21.276;2023-10-08T09:53:56;15.63;;;4.25;;
46407;SDS011;32110;45.724;21.276;2023-10-08T09:56:23;22.75;;;3.85;;
46407;SDS011;32110;45.724;21.276;2023-10-08T09:58:49;24.10;;;3.63;;
46407;SDS011;32110;45.724;21.276;2023-10-08T10:01:16;15.93;;;3.30;;
46407;SDS011;32110;45.724;21.276;2023-10-08T10:03:44;15.93;;;3.05;;
46407;SDS011;32110;45.724;21.276;2023-10-08T10:06:14;22.70;;;4.03;;
46407;SDS011;32110;45.724;21.276;2023-10-08T10:08:44;18.90;;;3.35;;
46407;SDS011;32110;45.724;21.276;2023-10-08T10:11:11;14.90;;;3.65;;
46407;SDS011;32110;45.724;21.276;2023-10-08T10:13:43;16.80;;;3.53;;
46407;SDS011;32110;45.724;21.276;2023-10-08T10:16:18;14.00;;;3.53;;
46407;SDS011;32110;45.724;21.276;2023-10-08T10:18:48;9.60;;;3.03;;
46407;SDS011;32110;45.724;21.276;2023-10-08T10:23:47;13.02;;;2.95;;
46407;SDS011;32110;45.724;21.276;2023-10-08T10:26:23;13.10;;;3.63;;
46407;SDS011;32110;45.724;21.276;2023-10-08T10:31:42;15.82;;;2.53;;
46407;SDS011;32110;45.724;21.276;2023-10-08T10:34:15;12.10;;;2.72;;
46407;SDS011;32110;45.724;21.276;2023-10-08T10:36:56;15.15;;;3.50;;
46407;SDS011;32110;45.724;21.276;2023-10-08T10:39:33;10.43;;;3.28;;
46407;SDS011;32110;45.724;21.276;2023-10-08T10:42:05;20.23;;;2.97;;
46407;SDS011;32110;45.724;21.276;2023-10-08T10:47:09;18.85;;;3.15;;
46407;SDS011;32110;45.724;21.276;2023-10-08T10:49:41;17.92;;;2.80;;
46407;SDS011;32110;45.724;21.276;2023-10-08T10:52:14;16.27;;;3.00;;
46407;SDS011;32110;45.724;21.276;2023-10-08T10:54:56;13.35;;;2.83;;
46407;SDS011;32110;45.724;21.276;2023-10-08T10:57:52;9.88;;;2.95;;
46407;SDS011;32110;45.724;21.276;2023-10-08T11:00:28;5.97;;;2.28;;
46407;SDS011;32110;45.724;21.276;2023-10-08T11:02:57;8.38;;;2.63;;
46407;SDS011;32110;45.724;21.276;2023-10-08T11:05:31;9.90;;;2.72;;
46407;SDS011;32110;45.724;21.276;2023-10-08T11:08:02;15.65;;;2.67;;
46407;SDS011;32110;45.724;21.276;2023-10-08T11:10:34;13.48;;;2.65;;
46407;SDS011;32110;45.724;21.276;2023-10-08T11:13:07;8.30;;;2.50;;
46407;SDS011;32110;45.724;21.276;2023-10-08T11:15:39;8.93;;;1.88;;
46407;SDS011;32110;45.724;21.276;2023-10-08T11:18:09;8.00;;;2.47;;
46407;SDS011;32110;45.724;21.276;2023-10-08T11:20:36;9.23;;;2.25;;
46407;SDS011;32110;45.724;21.276;2023-10-08T11:25:58;15.07;;;2.80;;
46407;SDS011;32110;45.724;21.276;2023-10-08T11:28:38;10.00;;;2.28;;
46407;SDS011;32110;45.724;21.276;2023-10-08T11:31:10;8.57;;;2.50;;
46407;SDS011;32110;45.724;21.276;2023-10-08T11:36:07;12.05;;;2.40;;
46407;SDS011;32110;45.724;21.276;2023-10-08T11:38:43;10.45;;;2.15;;
46407;SDS011;32110;45.724;21.276;2023-10-08T11:41:16;9.65;;;2.25;;
46407;SDS011;32110;45.724;21.276;2023-10-08T11:43:51;13.63;;;2.53;;
46407;SDS011;32110;45.724;21.276;2023-10-08T11:46:25;10.68;;;2.60;;
46407;SDS011;32110;45.724;21.276;2023-10-08T11:48:53;14.82;;;2.60;;
46407;SDS011;32110;45.724;21.276;2023-10-08T11:51:24;13.95;;;2.80;;
46407;SDS011;32110;45.724;21.276;2023-10-08T11:53:50;13.07;;;2.58;;
46407;SDS011;32110;45.724;21.276;2023-10-08T11:56:16;12.95;;;2.70;;
46407;SDS011;32110;45.724;21.276;2023-10-08T11:58:46;9.77;;;3.25;;
46407;SDS011;32110;45.724;21.276;2023-10-08T12:01:12;25.65;;;3.03;;
46407;SDS011;32110;45.724;21.276;2023-10-08T12:03:41;17.23;;;3.00;;
46407;SDS011;32110;45.724;21.276;2023-10-08T12:06:08;11.88;;;2.75;;
46407;SDS011;32110;45.724;21.276;2023-10-08T12:08:36;14.38;;;2.60;;
46407;SDS011;32110;45.724;21.276;2023-10-08T12:11:04;16.02;;;2.70;;
46407;SDS011;32110;45.724;21.276;2023-10-08T12:13:36;12.57;;;2.85;;
46407;SDS011;32110;45.724;21.276;2023-10-08T12:16:15;18.67;;;2.92;;
46407;SDS011;32110;45.724;21.276;2023-10-08T12:18:46;22.88;;;3.65;;
46407;SDS011;32110;45.724;21.276;2023-10-08T12:21:23;13.43;;;2.40;;
46407;SDS011;32110;45.724;21.276;2023-10-08T12:23:49;19.98;;;2.92;;
46407;SDS011;32110;45.724;21.276;2023-10-08T12:26:16;8.68;;;2.50;;
46407;SDS011;32110;45.724;21.276;2023-10-08T12:28:46;17.17;;;3.30;;
46407;SDS011;32110;45.724;21.276;2023-10-08T12:31:13;13.68;;;3.25;;
46407;SDS011;32110;45.724;21.276;2023-10-08T12:33:46;7.50;;;2.42;;
46407;SDS011;32110;45.724;21.276;2023-10-08T12:36:12;14.32;;;2.95;;
46407;SDS011;32110;45.724;21.276;2023-10-08T12:38:41;14.18;;;2.55;;
46407;SDS011;32110;45.724;21.276;2023-10-08T12:41:08;20.88;;;2.40;;
46407;SDS011;32110;45.724;21.276;2023-10-08T12:43:40;17.63;;;2.58;;
46407;SDS011;32110;45.724;21.276;2023-10-08T12:46:17;11.95;;;2.40;;
46407;SDS011;32110;45.724;21.276;2023-10-08T12:48:44;12.57;;;2.65;;
46407;SDS011;32110;45.724;21.276;2023-10-08T12:51:17;19.88;;;2.70;;
46407;SDS011;32110;45.724;21.276;2023-10-08T12:53:43;12.05;;;2.30;;
46407;SDS011;32110;45.724;21.276;2023-10-08T12:56:15;15.18;;;3.25;;
46407;SDS011;32110;45.724;21.276;2023-10-08T12:58:42;12.55;;;2.60;;
46407;SDS011;32110;45.724;21.276;2023-10-08T13:01:16;18.23;;;2.88;;
46407;SDS011;32110;45.724;21.276;2023-10-08T13:03:45;15.15;;;2.90;;
46407;SDS011;32110;45.724;21.276;2023-10-08T13:06:18;10.38;;;2.58;;
46407;SDS011;32110;45.724;21.276;2023-10-08T13:08:50;13.18;;;2.67;;
46407;SDS011;32110;45.724;21.276;2023-10-08T13:11:19;17.30;;;3.28;;
46407;SDS011;32110;45.724;21.276;2023-10-08T13:13:52;16.90;;;3.03;;
46407;SDS011;32110;45.724;21.276;2023-10-08T13:16:22;14.18;;;2.80;;
46407;SDS011;32110;45.724;21.276;2023-10-08T13:18:49;10.82;;;3.15;;
46407;SDS011;32110;45.724;21.276;2023-10-08T13:21:15;11.27;;;2.90;;
46407;SDS011;32110;45.724;21.276;2023-10-08T13:23:41;11.13;;;2.65;;
46407;SDS011;32110;45.724;21.276;2023-10-08T13:26:06;14.82;;;3.00;;
46407;SDS011;32110;45.724;21.276;2023-10-08T13:28:36;10.68;;;2.80;;
46407;SDS011;32110;45.724;21.276;2023-10-08T13:31:03;11.27;;;2.75;;
46407;SDS011;32110;45.724;21.276;2023-10-08T13:33:38;9.65;;;3.25;;
46407;SDS011;32110;45.724;21.276;2023-10-08T13:36:07;11.23;;;3.08;;
46407;SDS011;32110;45.724;21.276;2023-10-08T13:38:35;11.75;;;2.85;;
46407;SDS011;32110;45.724;21.276;2023-10-08T13:41:02;8.13;;;2.83;;
46407;SDS011;32110;45.724;21.276;2023-10-08T13:43:33;11.63;;;2.75;;
46407;SDS011;32110;45.724;21.276;2023-10-08T13:46:03;9.73;;;3.13;;
46407;SDS011;32110;45.724;21.276;2023-10-08T13:48:33;14.60;;;3.25;;
46407;SDS011;32110;45.724;21.276;2023-10-08T13:51:03;10.68;;;3.28;;
46407;SDS011;32110;45.724;21.276;2023-10-08T13:53:31;14.82;;;2.65;;
46407;SDS011;32110;45.724;21.276;2023-10-08T13:55:58;10.35;;;2.10;;
46407;SDS011;32110;45.724;21.276;2023-10-08T13:58:25;19.63;;;2.78;;
46407;SDS011;32110;45.724;21.276;2023-10-08T14:01:00;18.50;;;3.50;;
46407;SDS011;32110;45.724;21.276;2023-10-08T14:03:29;18.65;;;2.85;;
46407;SDS011;32110;45.724;21.276;2023-10-08T14:05:58;11.80;;;2.38;;
46407;SDS011;32110;45.724;21.276;2023-10-08T14:08:31;15.75;;;2.40;;
46407;SDS011;32110;45.724;21.276;2023-10-08T14:10:57;18.90;;;2.20;;
46407;SDS011;32110;45.724;21.276;2023-10-08T14:13:31;13.77;;;2.35;;
46407;SDS011;32110;45.724;21.276;2023-10-08T14:16:01;16.88;;;2.40;;
46407;SDS011;32110;45.724;21.276;2023-10-08T14:18:33;13.80;;;2.40;;
46407;SDS011;32110;45.724;21.276;2023-10-08T14:21:06;12.18;;;2.08;;
46407;SDS011;32110;45.724;21.276;2023-10-08T14:23:38;12.23;;;1.98;;
46407;SDS011;32110;45.724;21.276;2023-10-08T14:26:08;9.65;;;1.98;;
46407;SDS011;32110;45.724;21.276;2023-10-08T14:28:35;11.10;;;2.28;;
46407;SDS011;32110;45.724;21.276;2023-10-08T14:31:06;9.02;;;1.75;;
46407;SDS011;32110;45.724;21.276;2023-10-08T14:33:33;11.60;;;1.95;;
46407;SDS011;32110;45.724;21.276;2023-10-08T14:36:07;10.38;;;1.83;;
46407;SDS011;32110;45.724;21.276;2023-10-08T14:38:52;12.65;;;2.08;;
46407;SDS011;32110;45.724;21.276;2023-10-08T14:44:11;12.90;;;1.65;;
46407;SDS011;32110;45.724;21.276;2023-10-08T14:46:39;9.05;;;1.40;;
46407;SDS011;32110;45.724;21.276;2023-10-08T14:49:05;7.60;;;1.60;;
46407;SDS011;32110;45.724;21.276;2023-10-08T14:51:34;9.55;;;1.90;;
46407;SDS011;32110;45.724;21.276;2023-10-08T14:54:00;8.00;;;1.33;;
46407;SDS011;32110;45.724;21.276;2023-10-08T14:56:26;7.13;;;0.95;;
46407;SDS011;32110;45.724;21.276;2023-10-08T14:58:55;11.88;;;1.30;;
46407;SDS011;32110;45.724;21.276;2023-10-08T15:01:20;7.45;;;1.65;;
46407;SDS011;32110;45.724;21.276;2023-10-08T15:03:48;2.50;;;1.00;;